Time;durP1;ratioP1;P1;durP2;ratioP2;P2;SDS_P1;SDS_P2;PMS_P1;PMS_P2;Temp;Humidity;BMP_temperature;BMP_pressure;BME280_temperature;BME280_humidity;BME280_pressure;Samples;Min_cycle;Max_cycle;Signal;HPM_P1;HPM_P2
2023/05/07 00:00:44;;;;;;;10.07;6.88;;;;;;;12.15;57.76;95199.94;5045071;28;20025;-73
2023/05/07 00:03:09;;;;;;;10.63;7.88;;;;;;;12.15;57.53;95199.94;5043961;28;20028;-72
2023/05/07 00:05:35;;;;;;;10.57;7.85;;;;;;;12.13;57.80;95196.84;5042839;28;20097;-73
2023/05/07 00:08:00;;;;;;;9.70;6.85;;;;;;;12.12;57.88;95198.06;5043505;28;20109;-72
2023/05/07 00:10:26;;;;;;;8.93;7.32;;;;;;;12.05;58.05;95197.53;5042216;28;20017;-72
2023/05/07 00:12:51;;;;;;;10.90;6.95;;;;;;;11.78;58.93;95195.91;5045709;28;20051;-74
2023/05/07 00:15:17;;;;;;;9.60;6.90;;;;;;;11.81;58.71;95200.56;5043327;28;20040;-72
2023/05/07 00:17:42;;;;;;;10.15;6.68;;;;;;;11.85;58.49;95197.72;5043867;28;20025;-72
2023/05/07 00:20:08;;;;;;;9.80;6.40;;;;;;;11.84;58.00;95190.66;5042226;28;20029;-72
2023/05/07 00:22:33;;;;;;;11.18;6.43;;;;;;;11.78;57.83;95187.66;5044534;28;20428;-73
2023/05/07 00:24:59;;;;;;;10.95;6.53;;;;;;;11.80;57.61;95196.22;5044659;28;20392;-73
2023/05/07 00:27:24;;;;;;;8.43;5.93;;;;;;;11.80;57.77;95195.47;5042339;28;20146;-73
2023/05/07 00:29:50;;;;;;;9.98;6.72;;;;;;;11.76;58.00;95197.56;5045221;28;20021;-73
2023/05/07 00:32:15;;;;;;;10.93;6.65;;;;;;;11.75;58.15;95191.25;5042666;28;20507;-72
2023/05/07 00:34:41;;;;;;;9.73;6.38;;;;;;;11.72;58.13;95192.16;5045278;28;20059;-72
2023/05/07 00:37:09;;;;;;;7.97;6.30;;;;;;;11.69;58.16;95201.28;5041739;28;20411;-71
2023/05/07 00:39:35;;;;;;;8.45;6.13;;;;;;;11.67;58.21;95198.19;5044532;28;20021;-71
2023/05/07 00:42:02;;;;;;;7.30;5.90;;;;;;;11.64;58.43;95196.31;5042587;28;20021;-73
2023/05/07 00:44:28;;;;;;;10.05;6.35;;;;;;;11.65;58.52;95195.13;5042522;28;20032;-73
2023/05/07 00:46:54;;;;;;;9.48;6.30;;;;;;;11.61;58.35;95199.94;5043396;28;20407;-71
2023/05/07 00:49:19;;;;;;;7.88;6.10;;;;;;;11.58;58.73;95198.81;5041717;28;20079;-72
2023/05/07 00:51:45;;;;;;;7.90;6.05;;;;;;;11.58;58.72;95200.81;5043914;28;20079;-73
2023/05/07 00:54:11;;;;;;;7.40;5.88;;;;;;;11.56;58.82;95197.72;5041769;28;20484;-71
2023/05/07 00:56:36;;;;;;;8.93;6.22;;;;;;;11.54;58.88;95198.19;5043351;28;20025;-72
2023/05/07 00:59:02;;;;;;;8.93;6.40;;;;;;;11.49;58.91;95206.97;5042135;28;20105;-74
2023/05/07 01:01:28;;;;;;;9.15;6.05;;;;;;;11.47;58.84;95208.59;5043853;28;20511;-73
2023/05/07 01:03:53;;;;;;;7.85;6.38;;;;;;;11.44;58.94;95202.75;5026076;28;20044;-73
2023/05/07 01:06:21;;;;;;;9.48;6.10;;;;;;;11.45;58.88;95209.03;5042967;28;20021;-72
2023/05/07 01:08:46;;;;;;;8.18;6.05;;;;;;;11.43;58.82;95208.72;5044180;28;20143;-73
2023/05/07 01:11:12;;;;;;;10.57;6.10;;;;;;;11.40;58.58;95204.06;5041241;28;20052;-72
2023/05/07 01:13:38;;;;;;;8.82;6.10;;;;;;;11.38;58.88;95207.25;5027154;28;20033;-72
2023/05/07 01:16:04;;;;;;;6.65;5.95;;;;;;;11.36;58.96;95208.91;5045762;28;20053;-73
2023/05/07 01:18:32;;;;;;;10.02;6.63;;;;;;;11.32;59.05;95205.47;5046918;28;20049;-73
2023/05/07 01:20:59;;;;;;;8.20;5.85;;;;;;;11.29;59.03;95206.34;5045728;28;20029;-73
2023/05/07 01:23:25;;;;;;;7.93;6.05;;;;;;;11.24;59.24;95209.63;5045305;28;20117;-73
2023/05/07 01:25:52;;;;;;;9.60;6.75;;;;;;;11.24;59.47;95204.13;5046774;28;20112;-73
2023/05/07 01:28:18;;;;;;;8.32;5.80;;;;;;;11.22;59.32;95212.03;5046077;28;20021;-73
2023/05/07 01:30:56;;;;;;;7.78;5.55;;;;;;;11.20;59.20;95206.97;5046965;28;20021;-73
2023/05/07 01:33:22;;;;;;;6.68;5.70;;;;;;;11.16;59.55;95209.81;5045144;28;20101;-73
2023/05/07 01:35:50;;;;;;;7.47;6.00;;;;;;;11.15;59.42;95210.25;5046389;28;20037;-73
2023/05/07 01:38:16;;;;;;;7.18;5.80;;;;;;;11.13;59.49;95205.19;5045540;28;20067;-73
2023/05/07 01:40:41;;;;;;;8.95;6.53;;;;;;;11.12;59.67;95198.13;5045384;28;20186;-73
2023/05/07 01:43:07;;;;;;;8.35;6.53;;;;;;;11.04;59.71;95185.78;5046312;28;20029;-73
2023/05/07 01:45:33;;;;;;;8.57;6.40;;;;;;;11.04;59.66;95185.78;5027891;28;20032;-73
2023/05/07 01:47:59;;;;;;;10.38;6.78;;;;;;;11.03;60.08;95188.97;5047835;28;20032;-72
2023/05/07 01:50:25;;;;;;;7.82;6.30;;;;;;;10.99;59.91;95188.28;5043999;28;20082;-73
2023/05/07 01:52:52;;;;;;;10.43;6.40;;;;;;;10.97;59.86;95185.22;5046297;28;20021;-71
2023/05/07 01:55:17;;;;;;;9.05;6.13;;;;;;;10.95;59.77;95185.63;5028267;28;20036;-73
2023/05/07 01:57:43;;;;;;;10.38;7.00;;;;;;;10.90;59.96;95189.69;5046547;28;20029;-71
2023/05/07 02:00:08;;;;;;;7.80;6.35;;;;;;;10.88;59.94;95186.59;5045877;28;20021;-71
2023/05/07 02:02:34;;;;;;;9.90;6.63;;;;;;;10.88;59.97;95183.06;5044259;28;20808;-72
2023/05/07 02:05:01;;;;;;;7.40;5.65;;;;;;;10.85;59.94;95183.94;5047388;28;20025;-73
2023/05/07 02:07:27;;;;;;;11.30;6.63;;;;;;;10.82;60.11;95184.78;5043614;28;20483;-72
2023/05/07 02:09:53;;;;;;;11.13;6.43;;;;;;;10.81;60.34;95172.25;5046264;28;20029;-72
2023/05/07 02:12:19;;;;;;;9.00;6.90;;;;;;;10.79;60.57;95166.41;5043814;28;20080;-73
2023/05/07 02:14:44;;;;;;;11.18;7.63;;;;;;;10.79;60.64;95169.94;5046899;28;20029;-73
2023/05/07 02:17:09;;;;;;;13.55;8.88;;;;;;;10.79;61.08;95169.16;5044938;28;20470;-71
2023/05/07 02:19:35;;;;;;;9.48;7.05;;;;;;;10.78;61.04;95170.34;5045816;28;20033;-72
2023/05/07 02:22:00;;;;;;;11.65;6.90;;;;;;;10.77;60.98;95169.59;5046571;28;20025;-73
2023/05/07 02:24:25;;;;;;;10.18;6.93;;;;;;;10.76;61.07;95168.03;5044855;28;20356;-72
2023/05/07 02:26:51;;;;;;;10.75;7.90;;;;;;;10.74;61.09;95167.72;5047024;28;20087;-71
2023/05/07 02:29:16;;;;;;;11.48;7.50;;;;;;;10.73;61.28;95168.91;5043754;28;20017;-72
2023/05/07 02:31:42;;;;;;;12.35;9.05;;;;;;;10.74;61.19;95169.69;5045295;28;20079;-72
2023/05/07 02:34:07;;;;;;;16.25;9.18;;;;;;;10.62;61.57;95163.69;5045471;28;20060;-72
2023/05/07 02:36:32;;;;;;;10.95;8.63;;;;;;;10.68;61.95;95176.91;5044731;28;20029;-72
2023/05/07 02:38:58;;;;;;;12.35;9.10;;;;;;;10.67;61.78;95167.91;5044777;28;20977;-72
2023/05/07 02:41:23;;;;;;;12.05;8.30;;;;;;;10.64;62.03;95174.25;5043844;28;20040;-72
2023/05/07 02:43:48;;;;;;;11.55;9.00;;;;;;;10.66;61.77;95177.31;5045446;28;20025;-73
2023/05/07 02:46:14;;;;;;;15.55;9.07;;;;;;;10.62;61.70;95166.44;5043447;28;20108;-72
2023/05/07 02:48:39;;;;;;;12.15;8.75;;;;;;;10.62;61.65;95171.16;5028466;28;20033;-73
2023/05/07 02:51:05;;;;;;;12.43;9.00;;;;;;;10.62;61.69;95166.44;5044959;28;20025;-73
2023/05/07 02:53:31;;;;;;;11.35;8.43;;;;;;;10.61;61.50;95169.63;5046213;28;20027;-73
2023/05/07 02:55:57;;;;;;;11.02;7.45;;;;;;;10.62;61.46;95168.41;5045284;28;20091;-73
2023/05/07 02:58:23;;;;;;;13.05;8.02;;;;;;;10.58;61.49;95179.50;5044362;28;20025;-73
2023/05/07 03:00:48;;;;;;;13.27;8.13;;;;;;;10.57;61.68;95175.19;5045175;28;20060;-73
2023/05/07 03:03:14;;;;;;;12.15;8.13;;;;;;;10.56;61.72;95179.16;5046096;28;20025;-74
2023/05/07 03:05:39;;;;;;;14.00;8.15;;;;;;;10.55;61.30;95183.13;5045061;28;20490;-73
2023/05/07 03:08:05;;;;;;;10.52;8.50;;;;;;;10.55;61.14;95188.63;5025997;28;20142;-72
2023/05/07 03:10:30;;;;;;;9.80;8.38;;;;;;;10.54;60.82;95184.28;5044670;28;20353;-73
2023/05/07 03:12:56;;;;;;;10.18;7.82;;;;;;;10.50;60.94;95193.84;5044375;28;20029;-72
2023/05/07 03:15:21;;;;;;;10.40;8.07;;;;;;;10.48;60.96;95188.78;5044574;28;20040;-73
2023/05/07 03:17:47;;;;;;;12.52;8.02;;;;;;;10.47;60.96;95192.72;5043642;28;20091;-72
2023/05/07 03:20:13;;;;;;;10.30;7.45;;;;;;;10.49;61.04;95190.31;5044786;28;20055;-73
2023/05/07 03:22:38;;;;;;;9.63;7.40;;;;;;;10.48;60.82;95197.00;5044230;28;20478;-72
2023/05/07 03:25:04;;;;;;;9.85;7.55;;;;;;;10.48;60.59;95199.00;5044247;28;20028;-73
2023/05/07 03:27:30;;;;;;;11.02;7.40;;;;;;;10.46;60.55;95195.91;5045951;28;20040;-72
2023/05/07 03:29:55;;;;;;;10.80;6.65;;;;;;;10.49;60.51;95192.28;5042524;28;20021;-73
2023/05/07 03:32:20;;;;;;;11.10;7.65;;;;;;;10.47;60.62;95194.69;5045715;28;20057;-72
2023/05/07 03:34:46;;;;;;;9.60;7.43;;;;;;;10.46;60.57;95204.16;5043078;28;20479;-74
2023/05/07 03:37:11;;;;;;;10.07;7.88;;;;;;;10.45;60.52;95202.63;5044409;28;20494;-72
2023/05/07 03:39:37;;;;;;;9.63;7.78;;;;;;;10.45;60.41;95205.38;5044932;28;20472;-73
2023/05/07 03:42:02;;;;;;;8.98;7.75;;;;;;;10.45;60.56;95208.88;5044255;28;20112;-73
2023/05/07 03:44:28;;;;;;;8.30;7.40;;;;;;;10.46;60.75;95204.16;5045769;28;20108;-73
2023/05/07 03:46:53;;;;;;;11.60;7.53;;;;;;;10.44;60.79;95204.59;5041579;28;20032;-73
2023/05/07 03:49:19;;;;;;;8.70;7.65;;;;;;;10.48;60.80;95213.50;5044526;28;20021;-73
2023/05/07 03:51:44;;;;;;;13.75;7.43;;;;;;;10.48;61.04;95212.75;5042118;28;20407;-73
2023/05/07 03:54:09;;;;;;;9.25;7.55;;;;;;;10.50;61.17;95213.88;5043672;28;20068;-73
2023/05/07 03:56:35;;;;;;;10.40;7.70;;;;;;;10.49;61.04;95209.56;5045445;28;20017;-72
2023/05/07 03:59:01;;;;;;;11.07;7.38;;;;;;;10.49;61.16;95206.81;5026966;28;20029;-73
2023/05/07 04:01:26;;;;;;;10.07;7.53;;;;;;;10.52;60.96;95218.94;5043522;28;20048;-73
2023/05/07 04:03:52;;;;;;;9.68;7.55;;;;;;;10.50;61.45;95218.59;5043560;28;20033;-72
2023/05/07 04:06:17;;;;;;;8.82;7.15;;;;;;;10.54;61.39;95227.50;5045447;28;20437;-73
2023/05/07 04:08:43;;;;;;;9.13;8.07;;;;;;;10.54;61.90;95231.03;5042310;28;20171;-73
2023/05/07 04:11:08;;;;;;;12.45;8.65;;;;;;;10.54;61.84;95230.25;5044788;28;20033;-73
2023/05/07 04:13:34;;;;;;;9.50;7.53;;;;;;;10.60;62.04;95236.78;5043466;28;20029;-73
2023/05/07 04:16:01;;;;;;;10.45;8.70;;;;;;;10.60;62.13;95237.56;5043201;28;20021;-73
2023/05/07 04:18:26;;;;;;;10.00;7.72;;;;;;;10.61;62.11;95243.84;5043166;28;20032;-73
2023/05/07 04:20:53;;;;;;;8.95;7.97;;;;;;;10.67;62.09;95244.09;5041997;28;20032;-73
2023/05/07 04:23:18;;;;;;;10.52;8.82;;;;;;;10.73;61.98;95254.16;5045097;28;20389;-72
2023/05/07 04:25:43;;;;;;;10.32;7.95;;;;;;;10.74;61.88;95250.19;5043414;28;20031;-73
2023/05/07 04:28:09;;;;;;;8.68;7.78;;;;;;;10.78;61.90;95266.59;5045023;28;20033;-73
2023/05/07 04:30:34;;;;;;;10.95;8.43;;;;;;;10.82;61.86;95268.06;5043184;28;20472;-72
2023/05/07 04:33:00;;;;;;;13.70;7.78;;;;;;;10.84;61.79;95267.66;5043275;28;20017;-73
2023/05/07 04:35:25;;;;;;;11.30;7.72;;;;;;;10.90;61.82;95263.94;5044157;28;20072;-73
2023/05/07 04:37:50;;;;;;;11.82;8.00;;;;;;;10.96;61.64;95266.19;5044085;28;20502;-72
2023/05/07 04:40:16;;;;;;;10.52;7.35;;;;;;;10.95;61.54;95264.63;5043359;28;20444;-72
2023/05/07 04:42:41;;;;;;;10.68;8.38;;;;;;;11.02;61.70;95270.72;5043370;28;20033;-72
2023/05/07 04:45:08;;;;;;;10.05;8.35;;;;;;;11.07;61.54;95270.22;5043661;28;20345;-72
2023/05/07 04:47:34;;;;;;;9.80;7.85;;;;;;;11.12;61.62;95264.16;5042729;28;20127;-73
2023/05/07 04:49:59;;;;;;;11.73;8.38;;;;;;;11.17;61.64;95266.38;5047491;28;20496;-72
2023/05/07 04:52:25;;;;;;;11.95;8.05;;;;;;;11.23;61.38;95271.38;5047823;28;20053;-73
2023/05/07 04:54:50;;;;;;;11.07;8.68;;;;;;;11.30;61.25;95265.72;5049511;28;20025;-72
2023/05/07 04:57:17;;;;;;;9.52;7.95;;;;;;;11.36;61.07;95269.47;5046569;28;20032;-72
2023/05/07 04:59:43;;;;;;;11.02;8.90;;;;;;;11.41;60.98;95260.66;5046168;28;20017;-73
2023/05/07 05:02:09;;;;;;;12.40;8.43;;;;;;;11.45;60.90;95266.84;5046745;28;20041;-73
2023/05/07 05:04:34;;;;;;;9.95;8.73;;;;;;;11.52;60.88;95263.13;5046978;28;20037;-73
2023/05/07 05:07:00;;;;;;;11.85;9.10;;;;;;;11.59;60.73;95273.97;5048348;28;20096;-73
2023/05/07 05:09:25;;;;;;;10.88;8.77;;;;;;;11.64;60.41;95270.66;5046674;28;20040;-73
2023/05/07 05:11:51;;;;;;;11.32;8.30;;;;;;;11.70;60.50;95277.97;5046870;28;20025;-73
2023/05/07 05:14:16;;;;;;;10.77;9.05;;;;;;;11.75;60.38;95273.88;5047591;28;20442;-73
2023/05/07 05:16:42;;;;;;;11.63;8.40;;;;;;;11.82;60.51;95271.00;5048059;28;20028;-73
2023/05/07 05:19:07;;;;;;;11.40;8.93;;;;;;;11.84;60.36;95262.28;5046729;28;20017;-74
2023/05/07 05:21:32;;;;;;;13.10;9.00;;;;;;;11.93;60.28;95265.19;5046449;28;20040;-72
2023/05/07 05:23:58;;;;;;;11.80;8.95;;;;;;;11.95;60.11;95263.50;5048082;28;20135;-72
2023/05/07 05:26:23;;;;;;;11.63;8.63;;;;;;;12.00;60.06;95266.94;5028426;28;20508;-72
2023/05/07 05:28:49;;;;;;;12.40;8.57;;;;;;;12.00;60.08;95269.72;5046957;28;20498;-73
2023/05/07 05:31:15;;;;;;;12.48;8.73;;;;;;;12.08;60.00;95274.56;5046156;28;20021;-73
2023/05/07 05:33:40;;;;;;;11.70;8.60;;;;;;;12.16;60.00;95267.63;5047769;28;20099;-73
2023/05/07 05:36:09;;;;;;;22.10;8.75;;;;;;;12.26;59.69;95267.75;5047006;28;20105;-73
2023/05/07 05:38:34;;;;;;;12.68;9.38;;;;;;;12.29;59.78;95270.41;5047303;28;20025;-73
2023/05/07 05:41:00;;;;;;;11.27;9.52;;;;;;;12.39;59.61;95269.31;5047768;28;20032;-73
2023/05/07 05:43:25;;;;;;;12.32;9.25;;;;;;;12.44;59.71;95273.50;5046023;28;20055;-73
2023/05/07 05:45:50;;;;;;;12.68;9.15;;;;;;;12.49;59.66;95273.72;5048064;28;20104;-73
2023/05/07 05:48:16;;;;;;;9.77;8.70;;;;;;;12.58;59.46;95273.06;5045762;28;20037;-72
2023/05/07 05:50:42;;;;;;;14.75;9.52;;;;;;;12.62;59.33;95259.94;5047393;28;20423;-73
2023/05/07 05:53:07;;;;;;;13.23;10.50;;;;;;;12.68;59.21;95265.69;5028102;28;20518;-72
2023/05/07 05:55:33;;;;;;;14.32;10.05;;;;;;;12.77;59.02;95274.81;5045683;28;20025;-72
2023/05/07 05:58:00;;;;;;;11.20;9.38;;;;;;;12.85;59.00;95275.38;5045627;28;20472;-72
2023/05/07 06:00:25;;;;;;;12.50;9.77;;;;;;;12.95;59.05;95270.69;5027090;28;20179;-72
2023/05/07 06:02:51;;;;;;;12.77;10.60;;;;;;;13.05;59.67;95268.81;5047385;28;20029;-72
2023/05/07 06:05:17;;;;;;;14.40;10.77;;;;;;;13.12;59.25;95271.34;5045324;28;20024;-72
2023/05/07 06:07:42;;;;;;;12.38;10.43;;;;;;;13.18;59.12;95267.56;5047393;28;20037;-72
2023/05/07 06:10:08;;;;;;;12.88;10.07;;;;;;;13.26;58.97;95266.16;5044255;28;20045;-72
2023/05/07 06:12:33;;;;;;;12.55;10.48;;;;;;;13.36;58.34;95264.25;5047053;28;20021;-72
2023/05/07 06:14:58;;;;;;;14.93;10.85;;;;;;;13.47;58.30;95264.63;5046004;28;20424;-73
2023/05/07 06:17:24;;;;;;;16.42;10.98;;;;;;;13.55;58.20;95260.41;5046101;28;20029;-73
2023/05/07 06:19:49;;;;;;;12.90;10.13;;;;;;;13.67;58.00;95260.81;5046076;28;20369;-73
2023/05/07 06:22:15;;;;;;;11.40;9.77;;;;;;;13.71;57.72;95267.75;5046961;28;20056;-73
2023/05/07 06:24:40;;;;;;;13.43;10.85;;;;;;;13.74;57.89;95272.34;5046204;28;20387;-72
2023/05/07 06:27:05;;;;;;;12.25;10.57;;;;;;;13.84;57.86;95256.63;5043657;28;20361;-73
2023/05/07 06:29:32;;;;;;;12.70;9.95;;;;;;;13.91;57.63;95261.13;5045498;28;20114;-73
2023/05/07 06:32:06;;;;;;;14.63;10.55;;;;;;;14.00;57.25;95256.44;5044032;28;20582;-73
2023/05/07 06:34:32;;;;;;;13.63;10.45;;;;;;;14.09;57.17;95250.94;5044905;28;20135;-73
2023/05/07 06:36:57;;;;;;;14.30;10.70;;;;;;;14.23;56.92;95248.88;5046540;28;20500;-72
2023/05/07 06:39:23;;;;;;;13.13;10.63;;;;;;;14.30;56.93;95243.84;5045402;28;20017;-72
2023/05/07 06:41:48;;;;;;;15.50;12.05;;;;;;;14.33;56.76;95244.91;5045474;28;20519;-72
2023/05/07 06:44:14;;;;;;;16.92;11.52;;;;;;;14.42;56.70;95242.19;5045286;28;20032;-73
2023/05/07 06:46:41;;;;;;;15.85;11.90;;;;;;;14.57;56.30;95237.69;5048230;28;20047;-74
2023/05/07 06:49:06;;;;;;;13.40;11.02;;;;;;;14.68;55.88;95239.25;5044986;28;20056;-73
2023/05/07 06:51:31;;;;;;;14.15;11.30;;;;;;;14.65;55.77;95232.63;5044828;28;20167;-73
2023/05/07 06:53:57;;;;;;;14.70;11.00;;;;;;;14.73;55.75;95233.09;5045631;28;20423;-73
2023/05/07 06:56:23;;;;;;;15.40;11.43;;;;;;;14.94;55.58;95229.47;5045259;28;20074;-73
2023/05/07 06:58:48;;;;;;;14.45;10.20;;;;;;;14.91;55.03;95247.03;5046357;28;20040;-72
2023/05/07 07:01:14;;;;;;;12.20;10.52;;;;;;;15.11;54.38;95243.81;5043285;28;20546;-72
2023/05/07 07:03:39;;;;;;;14.27;10.55;;;;;;;15.26;54.00;95242.00;5046492;28;20021;-73
2023/05/07 07:06:05;;;;;;;11.90;9.50;;;;;;;15.33;53.50;95247.22;5044493;28;20028;-72
2023/05/07 07:08:30;;;;;;;11.57;10.13;;;;;;;15.49;53.19;95243.41;5046568;28;20043;-72
2023/05/07 07:10:56;;;;;;;12.38;9.90;;;;;;;15.56;52.61;95234.00;5043429;28;20053;-73
2023/05/07 07:13:21;;;;;;;15.25;10.50;;;;;;;15.66;52.05;95232.81;5045526;28;20031;-72
2023/05/07 07:15:47;;;;;;;11.95;9.57;;;;;;;15.82;52.24;95240.00;5045391;28;20449;-71
2023/05/07 07:18:12;;;;;;;15.00;9.85;;;;;;;15.83;51.34;95230.47;5043485;28;20025;-72
2023/05/07 07:20:37;;;;;;;25.77;14.50;;;;;;;15.78;51.12;95229.09;5044270;28;20581;-72
2023/05/07 07:23:03;;;;;;;15.85;11.50;;;;;;;15.76;51.38;95225.22;5044680;28;20025;-73
2023/05/07 07:25:28;;;;;;;17.27;12.20;;;;;;;15.99;50.64;95227.34;5047926;28;20037;-73
2023/05/07 07:27:55;;;;;;;18.80;11.48;;;;;;;15.98;50.49;95236.91;5045467;28;20129;-74
2023/05/07 07:30:20;;;;;;;12.75;9.48;;;;;;;16.19;49.97;95227.63;5045879;28;20029;-73
2023/05/07 07:32:45;;;;;;;13.13;9.60;;;;;;;16.39;49.65;95227.09;5044573;28;20041;-73
2023/05/07 07:35:11;;;;;;;10.18;8.95;;;;;;;16.44;50.00;95234.00;5043711;28;20036;-73
2023/05/07 07:37:36;;;;;;;12.80;9.32;;;;;;;16.62;49.13;95227.63;5043908;28;20116;-73
2023/05/07 07:40:03;;;;;;;10.60;8.75;;;;;;;16.77;49.44;95234.06;5044450;28;20048;-73
2023/05/07 07:42:29;;;;;;;12.07;8.57;;;;;;;16.91;48.97;95225.03;5044644;28;20530;-73
2023/05/07 07:44:54;;;;;;;12.68;9.38;;;;;;;17.03;48.83;95237.16;5042429;28;20543;-73
2023/05/07 07:47:20;;;;;;;13.75;8.35;;;;;;;17.21;48.21;95237.06;5044569;28;20035;-73
2023/05/07 07:49:45;;;;;;;11.50;8.77;;;;;;;17.38;47.83;95237.41;5042707;28;20453;-74
2023/05/07 07:52:10;;;;;;;13.07;10.05;;;;;;;17.39;47.99;95243.72;5043891;28;20021;-73
2023/05/07 07:54:36;;;;;;;12.55;9.00;;;;;;;17.48;47.47;95233.28;5043067;28;20116;-73
2023/05/07 07:57:01;;;;;;;13.55;7.85;;;;;;;17.66;47.20;95235.19;5043043;28;20029;-72
2023/05/07 07:59:27;;;;;;;10.52;8.07;;;;;;;17.77;46.39;95235.41;5045408;28;20480;-74
2023/05/07 08:01:55;;;;;;;11.48;8.18;;;;;;;17.87;45.78;95224.19;5041781;28;20103;-74
2023/05/07 08:04:21;;;;;;;11.02;8.70;;;;;;;18.01;45.84;95217.91;5044286;28;20025;-73
2023/05/07 08:06:46;;;;;;;13.15;8.85;;;;;;;18.15;45.64;95231.03;5043302;28;20035;-72
2023/05/07 08:09:12;;;;;;;10.10;8.38;;;;;;;18.26;45.20;95224.91;5043811;28;20035;-73
2023/05/07 08:11:38;;;;;;;11.02;7.75;;;;;;;18.39;45.44;95228.13;5042418;28;20410;-74
2023/05/07 08:14:04;;;;;;;8.85;7.72;;;;;;;18.44;45.24;95227.47;5043086;28;20491;-73
2023/05/07 08:16:29;;;;;;;11.40;8.00;;;;;;;18.60;44.53;95226.19;5043497;28;20496;-73
2023/05/07 08:18:55;;;;;;;9.70;7.78;;;;;;;18.82;44.48;95223.03;5043564;28;20040;-73
2023/05/07 08:21:20;;;;;;;11.70;8.40;;;;;;;18.93;44.02;95222.41;5043575;28;20021;-73
2023/05/07 08:23:46;;;;;;;9.05;6.90;;;;;;;18.83;43.28;95219.75;5045820;28;20021;-73
2023/05/07 08:26:11;;;;;;;10.27;6.75;;;;;;;19.12;43.06;95218.13;5051842;28;20115;-72
2023/05/07 08:28:37;;;;;;;10.25;7.20;;;;;;;19.27;42.75;95224.41;5031779;28;20403;-72
2023/05/07 08:31:02;;;;;;;10.50;7.57;;;;;;;19.47;42.38;95211.72;5052986;28;20431;-73
2023/05/07 08:33:27;;;;;;;11.80;6.93;;;;;;;19.60;41.92;95214.94;5050697;28;20464;-73
2023/05/07 08:35:53;;;;;;;8.85;7.25;;;;;;;19.77;42.31;95210.31;5050230;28;20036;-72
2023/05/07 08:38:18;;;;;;;7.57;6.28;;;;;;;19.96;41.98;95207.22;5051915;28;20411;-72
2023/05/07 08:40:44;;;;;;;9.93;7.00;;;;;;;20.13;41.17;95205.34;5031649;28;20120;-72
2023/05/07 08:43:12;;;;;;;9.43;6.40;;;;;;;20.15;40.65;95214.00;5034447;28;20112;-74
2023/05/07 08:45:40;;;;;;;9.32;6.53;;;;;;;20.33;40.47;95210.84;5049895;28;20090;-73
2023/05/07 08:48:09;;;;;;;7.63;6.38;;;;;;;20.62;39.93;95207.06;5051534;28;20029;-73
2023/05/07 08:50:38;;;;;;;7.75;6.07;;;;;;;20.83;39.34;95206.94;5049063;28;20091;-73
2023/05/07 08:53:04;;;;;;;8.15;5.70;;;;;;;20.95;38.06;95206.50;5050849;28;20475;-73
2023/05/07 08:55:30;;;;;;;6.90;5.25;;;;;;;21.16;37.61;95198.78;5049916;28;20040;-73
2023/05/07 08:57:55;;;;;;;5.75;4.60;;;;;;;21.21;37.20;95194.44;5048556;28;20036;-73
2023/05/07 09:00:21;;;;;;;6.65;4.88;;;;;;;21.43;36.89;95197.38;5050409;28;20458;-73
2023/05/07 09:02:46;;;;;;;5.43;4.32;;;;;;;21.62;36.89;95194.91;5049728;28;20040;-73
2023/05/07 09:05:12;;;;;;;7.10;5.13;;;;;;;21.91;36.02;95192.97;5033603;28;20028;-73
2023/05/07 09:07:37;;;;;;;6.72;4.65;;;;;;;22.13;35.96;95187.41;5048462;28;20032;-73
2023/05/07 09:10:04;;;;;;;6.55;5.43;;;;;;;22.37;35.43;95183.38;5050960;28;20017;-73
2023/05/07 09:12:29;;;;;;;6.05;4.78;;;;;;;22.56;34.96;95178.78;5048889;28;20029;-73
2023/05/07 09:14:56;;;;;;;9.15;5.55;;;;;;;22.83;34.54;95182.84;5050283;28;20048;-73
2023/05/07 09:17:21;;;;;;;10.70;6.07;;;;;;;23.02;34.69;95177.47;5049869;28;20504;-73
2023/05/07 09:19:47;;;;;;;6.82;5.93;;;;;;;23.29;34.37;95171.03;5048334;28;20075;-73
2023/05/07 09:22:13;;;;;;;8.27;5.60;;;;;;;23.47;33.27;95183.69;5033224;28;20120;-72
2023/05/07 09:24:39;;;;;;;5.63;4.20;;;;;;;23.75;32.31;95172.38;5048090;28;20484;-73
2023/05/07 09:27:05;;;;;;;6.13;3.97;;;;;;;23.93;31.38;95173.03;5049687;28;20564;-72
2023/05/07 09:29:35;;;;;;;7.55;4.60;;;;;;;24.21;30.43;95170.81;5048831;28;20480;-75
2023/05/07 09:32:09;;;;;;;6.65;3.95;;;;;;;24.38;30.50;95164.34;5050020;28;20029;-73
2023/05/07 09:34:36;;;;;;;4.43;3.90;;;;;;;24.66;30.44;95172.50;5047607;28;20082;-73
2023/05/07 09:37:02;;;;;;;5.32;4.82;;;;;;;24.75;30.09;95167.31;5046701;28;20600;-72
2023/05/07 09:39:45;;;;;;;5.68;4.43;;;;;;;25.13;29.07;95168.25;5047596;28;20029;-73
2023/05/07 09:42:16;;;;;;;4.45;3.70;;;;;;;25.57;28.21;95163.38;5044767;28;20055;-74
2023/05/07 09:44:44;;;;;;;3.50;3.10;;;;;;;25.71;27.18;95160.66;5047581;28;20033;-74
2023/05/07 09:47:10;;;;;;;4.88;3.10;;;;;;;25.97;26.43;95155.19;5046833;28;20025;-74
2023/05/07 09:49:37;;;;;;;3.85;3.10;;;;;;;26.02;25.91;95151.53;5046460;28;20499;-74
2023/05/07 09:52:06;;;;;;;5.03;2.80;;;;;;;26.28;26.00;95139.63;5047686;28;20064;-74
2023/05/07 09:54:34;;;;;;;3.90;2.65;;;;;;;26.46;25.39;95150.09;5044390;28;20025;-72
2023/05/07 09:57:02;;;;;;;4.68;3.10;;;;;;;26.65;24.72;95152.84;5046158;28;20021;-73
2023/05/07 09:59:28;;;;;;;4.75;2.80;;;;;;;27.03;25.00;95138.59;5044660;28;20079;-73
2023/05/07 10:01:58;;;;;;;3.45;2.60;;;;;;;27.25;24.61;95143.09;5045499;28;20057;-73
2023/05/07 10:04:24;;;;;;;4.25;3.20;;;;;;;27.49;24.11;95139.28;5046570;28;20373;-72
2023/05/07 10:06:50;;;;;;;8.40;2.97;;;;;;;27.22;24.25;95142.09;5044832;28;20538;-73
2023/05/07 10:09:16;;;;;;;5.88;3.40;;;;;;;27.09;24.00;95138.53;5045407;28;20029;-73
2023/05/07 10:11:41;;;;;;;3.53;3.03;;;;;;;27.22;24.29;95142.09;5044048;28;20028;-73
2023/05/07 10:14:07;;;;;;;4.30;2.67;;;;;;;27.36;24.23;95133.66;5045801;28;20028;-73
2023/05/07 10:16:36;;;;;;;4.53;2.85;;;;;;;27.71;23.93;95133.19;5044323;28;20143;-73
2023/05/07 10:19:03;;;;;;;7.88;4.50;;;;;;;27.60;23.77;95139.03;5045604;28;20029;-72
2023/05/07 10:21:29;;;;;;;5.35;3.30;;;;;;;27.77;24.06;95128.19;5044265;28;20025;-73
2023/05/07 10:24:05;;;;;;;6.40;2.90;;;;;;;27.97;23.95;95123.88;5044960;28;20025;-73
2023/05/07 10:26:32;;;;;;;6.95;3.53;;;;;;;28.23;23.54;95117.38;5048180;28;20025;-72
2023/05/07 10:29:02;;;;;;;7.57;4.68;;;;;;;28.34;22.79;95116.38;5043994;28;20098;-72
2023/05/07 10:31:55;;;;;;;7.35;4.60;;;;;;;28.57;22.81;95110.91;5045847;28;20064;-73
2023/05/07 10:34:28;;;;;;;3.53;2.80;;;;;;;28.57;22.31;95108.09;5044201;28;20416;-73
2023/05/07 10:36:54;;;;;;;4.47;2.95;;;;;;;28.49;22.15;95099.53;5044985;28;20018;-73
2023/05/07 10:39:20;;;;;;;3.92;3.20;;;;;;;28.69;21.67;95100.84;5044890;28;20057;-75
2023/05/07 10:41:46;;;;;;;4.28;2.80;;;;;;;28.94;21.84;95109.72;5045788;28;20035;-72
2023/05/07 10:44:11;;;;;;;3.67;2.70;;;;;;;28.99;20.49;95102.38;5047970;28;20025;-73
2023/05/07 10:46:37;;;;;;;3.33;2.47;;;;;;;28.88;20.27;95111.91;5043068;28;20021;-74
2023/05/07 10:49:08;;;;;;;3.53;2.63;;;;;;;28.96;20.47;95109.94;5046566;28;20055;-73
2023/05/07 10:51:35;;;;;;;4.35;2.55;;;;;;;28.93;20.49;95110.28;5043695;28;20025;-73
2023/05/07 10:54:19;;;;;;;3.63;3.08;;;;;;;28.94;20.89;95100.47;5045192;28;20037;-73
2023/05/07 10:56:44;;;;;;;4.18;2.60;;;;;;;28.93;20.74;95093.28;5045204;28;20116;-73
2023/05/07 10:59:30;;;;;;;3.80;2.80;;;;;;;29.06;20.59;95093.19;5044566;28;20021;-73
2023/05/07 11:02:07;;;;;;;4.05;2.78;;;;;;;29.40;19.69;95092.25;5046668;28;20149;-72
2023/05/07 11:04:34;;;;;;;3.63;2.40;;;;;;;29.39;20.34;95099.97;5028337;28;20116;-73
2023/05/07 11:07:06;;;;;;;4.78;3.20;;;;;;;29.59;20.46;95098.38;5027752;28;20071;-73
2023/05/07 11:09:53;;;;;;;3.95;2.90;;;;;;;29.85;20.36;95103.03;5045994;28;20033;-73
2023/05/07 11:12:37;;;;;;;4.28;2.90;;;;;;;29.89;19.47;95092.84;5043981;28;20035;-73
2023/05/07 11:15:04;;;;;;;3.35;2.65;;;;;;;29.87;19.08;95086.97;5044962;28;20162;-74
2023/05/07 11:17:31;;;;;;;3.00;2.47;;;;;;;29.82;19.33;95099.25;5043105;28;20033;-74
2023/05/07 11:19:57;;;;;;;3.55;2.40;;;;;;;29.87;19.79;95097.53;5044203;28;20063;-73
2023/05/07 11:22:32;;;;;;;5.05;2.80;;;;;;;29.89;19.07;95077.94;5045973;28;20053;-74
2023/05/07 11:25:01;;;;;;;6.78;2.67;;;;;;;29.74;19.44;95075.03;5044533;28;20108;-74